Hinton, Canada
Current Conditions -  °F | °C
As of 12:00 PM on Friday 21 Nov 2014 (Local Time) from CYET Reporting Station
Broken Clouds Broken Clouds  
Wind Chill: 44°   Ceiling: 14000
Heat Index: 46°   Visibility: 9mi
Dew Point: 27°   Wind: 6mph
Humidity: 46%   Direction: 240°WSW
Pressure: 29.5"   Gusts: NA
Location:  53.4°N, 117.58°W
Report Text: CYET 211900Z AUTO 24005KT 200V290 9SM BKN140 BKN160 08/M03 A2950 RMK SLP006 DENSITY ALT 3300FT
Loading
Personal Weather Stations






























Interactive Weather Map New forecast layout! Learn more

10-Day Weather Forecast

Advertisements
Track Severe Weather on mobile